BIAR

Akureyri Airport

Airport
ICAO code
BIAR
IATA Code
AEY
Summary
ICAO Region
NAT
ICAO Territory
Location

Akureyri,

Serving
Akureyri
Elevation
7 ft
Coordinates
65° 39' 31" N , 18° 4' 25" W
KCC
Airport WX
Volcanic Ash
Metar
Observation
BIAR 070900Z 15005KT 9999 FEW006 BKN012 OVC025 01/01 Q1000
Station
Akureyri
Date/Time
2022-10-07 09:00:00
Wind direction
150°
Wind speed
05 kts
Lowest cloud amount
few clouds
Temperature
1°C
Dew point
1°C
Humidity
100%
QNH
1000 hPa
Weather condition
n/a

Description

International airport serving the communities surrounding the Eyjafjörður in northern Iceland. Mostly used by domestic flights, there are some international flights usually in the summer months. Akureyri may be nominated as a diversion for aircraft flying into either Keflavik or Reykjavik in the event that both are unavailable.

Climatology

Subpolar Oceanic climate (Köppen climate classification Cfc) - uniform precipitation distribution, temperatures are moderated by the proximity of the ocean and warm currents - cool summers and comparatively mild winters.

Runways

Designator Length Width Surface Rops
1/19 2400 45 ASP Yes/Yes

Airport map

Aerial View

SKYbrary Partners:

Safety knowledge contributed by: